createdAt,value
2017-04-04T00:00:14.567Z,1017.87
2017-04-04T00:01:15.800Z,1017.84
2017-04-04T00:02:17.048Z,1017.85
2017-04-04T00:03:18.324Z,1017.86
2017-04-04T00:04:19.573Z,1017.86
2017-04-04T00:05:20.826Z,1017.82
2017-04-04T00:06:22.044Z,1017.81
2017-04-04T00:07:23.360Z,1017.77
2017-04-04T00:08:24.587Z,1017.8
2017-04-04T00:09:25.865Z,1017.75
2017-04-04T00:10:27.056Z,1017.75
2017-04-04T00:11:28.309Z,1017.81
2017-04-04T00:12:29.551Z,1017.74
2017-04-04T00:13:30.792Z,1017.76
2017-04-04T00:14:32.009Z,1017.72
2017-04-04T00:15:33.244Z,1017.73
2017-04-04T00:16:34.498Z,1017.7
2017-04-04T00:17:35.720Z,1017.7
2017-04-04T00:18:36.957Z,1017.71
2017-04-04T00:19:38.198Z,1017.71
2017-04-04T00:20:39.472Z,1017.72
2017-04-04T00:21:40.788Z,1017.7
2017-04-04T00:22:42.158Z,1017.67
2017-04-04T00:23:43.370Z,1017.66
2017-04-04T00:24:44.612Z,1017.67
2017-04-04T00:25:45.862Z,1017.68
2017-04-04T00:26:47.150Z,1017.67
2017-04-04T00:27:48.403Z,1017.67
2017-04-04T00:28:49.612Z,1017.65
2017-04-04T00:29:50.866Z,1017.68
2017-04-04T00:30:52.112Z,1017.65
2017-04-04T00:31:53.340Z,1017.67
2017-04-04T00:32:54.600Z,1017.63
2017-04-04T00:33:55.886Z,1017.62
2017-04-04T00:34:57.124Z,1017.65
2017-04-04T00:35:58.364Z,1017.62
2017-04-04T00:36:59.607Z,1017.6
2017-04-04T00:38:00.846Z,1017.59
2017-04-04T00:39:02.090Z,1017.6
2017-04-04T00:40:03.383Z,1017.65
2017-04-04T00:41:04.622Z,1017.61
2017-04-04T00:42:05.859Z,1017.62
2017-04-04T00:43:07.120Z,1017.62
2017-04-04T00:44:08.338Z,1017.6
2017-04-04T00:45:09.566Z,1017.6
2017-04-04T00:46:10.864Z,1017.59
2017-04-04T00:47:12.121Z,1017.6
2017-04-04T00:48:13.345Z,1017.56
2017-04-04T00:49:14.600Z,1017.55
2017-04-04T00:50:15.830Z,1017.52
2017-04-04T00:51:17.064Z,1017.54
2017-04-04T00:52:18.307Z,1017.53
2017-04-04T00:53:19.548Z,1017.55
2017-04-04T00:54:20.829Z,1017.53
2017-04-04T00:55:22.066Z,1017.5
2017-04-04T00:56:23.309Z,1017.51
2017-04-04T00:57:24.561Z,1017.5
2017-04-04T00:58:25.782Z,1017.49
2017-04-04T00:59:27.032Z,1017.46
2017-04-04T01:00:28.296Z,1017.49
2017-04-04T01:01:29.540Z,1017.49
2017-04-04T01:02:30.838Z,1017.47
2017-04-04T01:03:32.089Z,1017.45
2017-04-04T01:04:33.329Z,1017.49
2017-04-04T01:05:34.572Z,1017.43
2017-04-04T01:06:35.807Z,1017.43
2017-04-04T01:07:37.127Z,1017.43
2017-04-04T01:08:38.366Z,1017.42
2017-04-04T01:09:39.605Z,1017.39
2017-04-04T01:10:40.887Z,1017.39
2017-04-04T01:11:42.128Z,1017.37
2017-04-04T01:12:43.392Z,1017.36
2017-04-04T01:13:44.603Z,1017.38
2017-04-04T01:14:45.857Z,1017.36
2017-04-04T01:15:47.078Z,1017.38
2017-04-04T01:16:48.310Z,1017.35
2017-04-04T01:17:49.608Z,1017.36
2017-04-04T01:18:50.828Z,1017.36
2017-04-04T01:19:52.091Z,1017.31
2017-04-04T01:20:53.306Z,1017.33
2017-04-04T01:21:54.549Z,1017.32
2017-04-04T01:22:55.803Z,1017.35
2017-04-04T01:23:57.031Z,1017.37
2017-04-04T01:24:58.263Z,1017.34
2017-04-04T01:25:59.501Z,1017.35
2017-04-04T01:27:00.810Z,1017.35
2017-04-04T01:28:02.184Z,1017.31
2017-04-04T01:29:03.411Z,1017.32
2017-04-04T01:30:04.649Z,1017.33
2017-04-04T01:31:05.916Z,1017.31
2017-04-04T01:32:07.206Z,1017.36
2017-04-04T01:33:08.529Z,1017.35
2017-04-04T01:34:09.763Z,1017.35
2017-04-04T01:35:10.997Z,1017.33
2017-04-04T01:36:12.236Z,1017.3
2017-04-04T01:37:13.476Z,1017.32
2017-04-04T01:38:14.712Z,1017.29
2017-04-04T01:39:15.979Z,1017.27
2017-04-04T01:40:17.179Z,1017.25
2017-04-04T01:41:18.448Z,1017.26
2017-04-04T01:42:19.706Z,1017.25
2017-04-04T01:43:20.937Z,1017.26
2017-04-04T01:44:22.169Z,1017.27
2017-04-04T01:45:23.424Z,1017.24
2017-04-04T01:46:24.656Z,1017.21
2017-04-04T01:47:25.897Z,1017.23
2017-04-04T01:48:27.166Z,1017.25
2017-04-04T01:49:28.359Z,1017.21
2017-04-04T01:50:29.609Z,1017.23
2017-04-04T01:51:30.899Z,1017.2
2017-04-04T01:52:32.152Z,1017.2
2017-04-04T01:53:33.367Z,1017.18
2017-04-04T01:54:34.598Z,1017.19
2017-04-04T01:55:35.835Z,1017.15
2017-04-04T01:56:37.070Z,1017.16
2017-04-04T01:57:38.296Z,1017.17
2017-04-04T01:58:39.538Z,1017.16
2017-04-04T01:59:40.820Z,1017.14
2017-04-04T02:00:42.121Z,1017.15
2017-04-04T02:01:43.369Z,1017.15
2017-04-04T02:02:44.592Z,1017.15
2017-04-04T02:03:45.847Z,1017.1
2017-04-04T02:04:47.193Z,1017.11
2017-04-04T02:05:48.432Z,1017.1
2017-04-04T02:06:49.664Z,1017.1
2017-04-04T02:07:50.894Z,1017.13
2017-04-04T02:08:52.136Z,1017.16
2017-04-04T02:09:53.366Z,1017.18
2017-04-04T02:10:54.701Z,1017.15
2017-04-04T02:11:55.836Z,1017.11
2017-04-04T02:12:57.223Z,1017.11
2017-04-04T02:13:58.463Z,1017.11
2017-04-04T02:14:59.701Z,1017.12
2017-04-04T02:16:00.941Z,1017.13
2017-04-04T02:17:02.175Z,1017.13
2017-04-04T02:18:03.555Z,1017.08
2017-04-04T02:19:04.809Z,1017.08
2017-04-04T02:20:06.035Z,1017.1
2017-04-04T02:21:07.247Z,1017.11
2017-04-04T02:22:08.491Z,1017.05
2017-04-04T02:23:09.715Z,1017.07
2017-04-04T02:24:11.108Z,1017.08
2017-04-04T02:25:12.345Z,1017.06
2017-04-04T02:26:13.579Z,1017.05
2017-04-04T02:27:14.809Z,1017.04
2017-04-04T02:28:16.032Z,1017.07
2017-04-04T02:29:17.270Z,1017.05
2017-04-04T02:30:18.522Z,1017.07
2017-04-04T02:31:19.774Z,1017.11
2017-04-04T02:32:21.150Z,1017.07
2017-04-04T02:33:22.395Z,1017.09
2017-04-04T02:34:23.622Z,1017.09
2017-04-04T02:35:24.963Z,1017.08
2017-04-04T02:36:26.204Z,1017.06
2017-04-04T02:37:27.441Z,1017.07
2017-04-04T02:38:28.669Z,1017.1
2017-04-04T02:39:29.903Z,1017.05
2017-04-04T02:40:31.139Z,1017.07
2017-04-04T02:41:32.377Z,1017.07
2017-04-04T02:42:33.646Z,1017.09
2017-04-04T02:43:34.920Z,1017.06
2017-04-04T02:44:36.166Z,1017.04
2017-04-04T02:45:37.382Z,1017.09
2017-04-04T02:46:38.745Z,1017.08
2017-04-04T02:47:39.980Z,1017.03
2017-04-04T02:48:41.213Z,1017.01
2017-04-04T02:49:42.447Z,1017.01
2017-04-04T02:50:43.674Z,1017.03
2017-04-04T02:51:44.991Z,1017.04
2017-04-04T02:52:46.209Z,1016.99
2017-04-04T02:53:47.440Z,1016.99
2017-04-04T02:54:48.666Z,1016.98
2017-04-04T02:55:49.906Z,1017.01
2017-04-04T02:56:51.243Z,1017
2017-04-04T02:57:52.500Z,1016.99
2017-04-04T02:58:53.725Z,1017
2017-04-04T02:59:54.953Z,1017
2017-04-04T03:00:56.192Z,1016.99
2017-04-04T03:01:57.474Z,1016.97
2017-04-04T03:02:58.714Z,1016.98
2017-04-04T03:03:59.968Z,1016.94
2017-04-04T03:05:01.239Z,1016.93
2017-04-04T03:06:02.521Z,1016.9
2017-04-04T03:07:03.767Z,1016.92
2017-04-04T03:08:04.976Z,1016.92
2017-04-04T03:09:06.217Z,1016.89
2017-04-04T03:10:07.462Z,1016.94
2017-04-04T03:11:08.695Z,1016.9
2017-04-04T03:12:09.934Z,1016.88
2017-04-04T03:13:11.148Z,1016.89
2017-04-04T03:14:12.386Z,1016.9
2017-04-04T03:15:13.623Z,1016.92
2017-04-04T03:16:14.907Z,1016.83
2017-04-04T03:17:16.246Z,1016.86
2017-04-04T03:18:17.365Z,1016.85
2017-04-04T03:19:18.639Z,1016.83
2017-04-04T03:20:19.868Z,1016.83
2017-04-04T03:21:21.094Z,1016.86
2017-04-04T03:22:22.324Z,1016.86
2017-04-04T03:23:23.630Z,1016.86
2017-04-04T03:24:24.878Z,1016.85
2017-04-04T03:25:26.102Z,1016.86
2017-04-04T03:26:27.360Z,1016.79
2017-04-04T03:27:28.572Z,1016.85
2017-04-04T03:28:29.824Z,1016.8
2017-04-04T03:29:31.061Z,1016.72
2017-04-04T03:30:32.299Z,1016.76
2017-04-04T03:31:33.535Z,1016.68
2017-04-04T03:32:34.872Z,1016.71
2017-04-04T03:33:36.129Z,1016.67
2017-04-04T03:34:37.415Z,1016.67
2017-04-04T03:35:38.715Z,1016.68
2017-04-04T03:36:39.881Z,1016.67
2017-04-04T03:37:41.298Z,1016.67
2017-04-04T03:38:42.531Z,1016.64
2017-04-04T03:39:43.772Z,1016.68
2017-04-04T03:40:45.011Z,1016.67
2017-04-04T03:41:46.246Z,1016.65
2017-04-04T03:42:47.589Z,1016.68
2017-04-04T03:43:48.821Z,1016.68
2017-04-04T03:44:50.049Z,1016.74
2017-04-04T03:45:51.289Z,1016.68
2017-04-04T03:46:52.515Z,1016.73
2017-04-04T03:47:53.781Z,1016.71
2017-04-04T03:48:55.133Z,1016.73
2017-04-04T03:49:56.369Z,1016.74
2017-04-04T03:50:57.604Z,1016.8
2017-04-04T03:51:58.828Z,1016.82
2017-04-04T03:53:00.061Z,1016.8
2017-04-04T03:54:01.312Z,1016.79
2017-04-04T03:55:02.602Z,1016.78
2017-04-04T03:56:03.835Z,1016.78
2017-04-04T03:57:05.066Z,1016.75
2017-04-04T03:58:06.292Z,1016.73
2017-04-04T03:59:07.523Z,1016.7
2017-04-04T04:00:08.773Z,1016.72
2017-04-04T04:01:10.014Z,1016.74
2017-04-04T04:02:11.256Z,1016.73
2017-04-04T04:03:12.548Z,1016.68
2017-04-04T04:04:13.741Z,1016.72
2017-04-04T04:05:14.971Z,1016.7
2017-04-04T04:06:16.208Z,1016.71
2017-04-04T04:07:17.544Z,1016.72
2017-04-04T04:08:18.913Z,1016.72
2017-04-04T04:09:20.216Z,1016.72
2017-04-04T04:10:21.384Z,1016.73
2017-04-04T04:11:22.635Z,1016.75
2017-04-04T04:12:23.867Z,1016.73
2017-04-04T04:13:25.104Z,1016.76
2017-04-04T04:14:26.350Z,1016.73
2017-04-04T04:15:27.573Z,1016.7
2017-04-04T04:16:28.829Z,1016.69
2017-04-04T04:17:30.057Z,1016.69
2017-04-04T04:18:31.291Z,1016.67
2017-04-04T04:19:32.515Z,1016.71
2017-04-04T04:20:33.772Z,1016.7
2017-04-04T04:21:35.038Z,1016.68
2017-04-04T04:22:36.286Z,1016.67
2017-04-04T04:23:37.518Z,1016.68
2017-04-04T04:24:38.755Z,1016.69
2017-04-04T04:25:39.989Z,1016.71
2017-04-04T04:26:41.235Z,1016.7
2017-04-04T04:27:42.481Z,1016.68
2017-04-04T04:28:43.778Z,1016.68
2017-04-04T04:29:45.171Z,1016.7
2017-04-04T04:30:46.418Z,1016.73
2017-04-04T04:31:47.655Z,1016.72
2017-04-04T04:32:49.044Z,1016.71
2017-04-04T04:33:50.157Z,1016.71
2017-04-04T04:34:51.414Z,1016.7
2017-04-04T04:35:52.682Z,1016.67
2017-04-04T04:36:53.904Z,1016.68
2017-04-04T04:37:55.153Z,1016.71
2017-04-04T04:38:56.397Z,1016.68
2017-04-04T04:39:57.614Z,1016.67
2017-04-04T04:40:58.920Z,1016.64
2017-04-04T04:42:00.181Z,1016.65
2017-04-04T04:43:01.408Z,1016.69
2017-04-04T04:44:02.698Z,1016.7
2017-04-04T04:45:03.920Z,1016.72
2017-04-04T04:46:05.156Z,1016.72
2017-04-04T04:47:06.402Z,1016.73
2017-04-04T04:48:07.698Z,1016.76
2017-04-04T04:49:08.939Z,1016.79
2017-04-04T04:50:10.175Z,1016.77
2017-04-04T04:51:11.412Z,1016.78
2017-04-04T04:52:12.653Z,1016.81
2017-04-04T04:53:13.980Z,1016.8
2017-04-04T04:54:15.357Z,1016.81
2017-04-04T04:55:16.560Z,1016.82
2017-04-04T04:56:17.804Z,1016.83
2017-04-04T04:57:19.025Z,1016.83
2017-04-04T04:58:20.254Z,1016.84
2017-04-04T04:59:21.506Z,1016.85
2017-04-04T05:00:22.787Z,1016.85
2017-04-04T05:01:24.162Z,1016.86
2017-04-04T05:02:25.275Z,1016.85
2017-04-04T05:03:26.532Z,1016.82
2017-04-04T05:04:27.769Z,1016.88
2017-04-04T05:05:29.023Z,1016.85
2017-04-04T05:06:30.256Z,1016.84
2017-04-04T05:07:31.510Z,1016.83
2017-04-04T05:08:32.857Z,1016.83
2017-04-04T05:09:34.068Z,1016.83
2017-04-04T05:10:35.301Z,1016.83
2017-04-04T05:11:36.538Z,1016.87
2017-04-04T05:12:37.855Z,1016.86
2017-04-04T05:13:39.096Z,1016.86
2017-04-04T05:14:40.345Z,1016.86
2017-04-04T05:15:41.584Z,1016.82
2017-04-04T05:16:42.843Z,1016.88
2017-04-04T05:17:44.036Z,1016.86
2017-04-04T05:18:45.418Z,1016.88
2017-04-04T05:19:46.658Z,1016.85
2017-04-04T05:20:47.892Z,1016.86
2017-04-04T05:21:49.117Z,1016.9
2017-04-04T05:22:50.375Z,1016.88
2017-04-04T05:23:51.637Z,1016.94
2017-04-04T05:24:52.870Z,1016.94
2017-04-04T05:25:54.105Z,1016.98
2017-04-04T05:26:55.364Z,1016.99
2017-04-04T05:27:56.628Z,1016.98
2017-04-04T05:28:57.861Z,1017.03
2017-04-04T05:29:59.095Z,1017.08
2017-04-04T05:31:00.344Z,1017.06
2017-04-04T05:32:01.696Z,1017.07
2017-04-04T05:33:03.041Z,1017.14
2017-04-04T05:34:04.374Z,1017.12
2017-04-04T05:35:05.606Z,1017.12
2017-04-04T05:36:06.857Z,1017.15
2017-04-04T05:37:08.080Z,1017.13
2017-04-04T05:38:09.427Z,1017.15
2017-04-04T05:39:10.692Z,1017.13
2017-04-04T05:40:11.891Z,1017.15
2017-04-04T05:41:13.122Z,1017.13
2017-04-04T05:42:14.351Z,1017.17
2017-04-04T05:43:15.719Z,1017.16
2017-04-04T05:44:16.943Z,1017.18
2017-04-04T05:45:18.311Z,1017.2
2017-04-04T05:46:19.463Z,1017.18
2017-04-04T05:47:20.690Z,1017.17
2017-04-04T05:48:21.920Z,1017.17
2017-04-04T05:49:23.164Z,1017.19
2017-04-04T05:50:24.417Z,1017.16
2017-04-04T05:51:25.710Z,1017.19
2017-04-04T05:52:26.943Z,1017.19
2017-04-04T05:53:28.190Z,1017.21
2017-04-04T05:54:29.452Z,1017.13
2017-04-04T05:55:30.687Z,1017.15
2017-04-04T05:56:31.938Z,1017.11
2017-04-04T05:57:33.282Z,1017.1
2017-04-04T05:58:34.783Z,1017.11
2017-04-04T05:59:36.057Z,1017.12
2017-04-04T06:00:37.325Z,1017.12
2017-04-04T06:01:38.564Z,1017.15
2017-04-04T06:02:39.799Z,1017.17
2017-04-04T06:03:41.047Z,1017.19
2017-04-04T06:04:42.347Z,1017.18
2017-04-04T06:05:43.584Z,1017.15
2017-04-04T06:06:44.825Z,1017.11
2017-04-04T06:07:46.078Z,1017.11
2017-04-04T06:08:47.308Z,1017.12
2017-04-04T06:09:48.556Z,1017.11
2017-04-04T06:10:49.793Z,1017.15
2017-04-04T06:11:51.058Z,1017.13
2017-04-04T06:12:52.302Z,1017.14
2017-04-04T06:13:53.534Z,1017.14
2017-04-04T06:14:54.818Z,1017.15
2017-04-04T06:15:56.035Z,1017.19
2017-04-04T06:16:57.453Z,1017.16
2017-04-04T06:17:58.723Z,1017.15
2017-04-04T06:18:59.972Z,1017.12
2017-04-04T06:20:01.219Z,1017.11
2017-04-04T06:21:02.451Z,1017.14
2017-04-04T06:22:03.733Z,1017.18
2017-04-04T06:23:05.033Z,1017.21
2017-04-04T06:24:06.369Z,1017.22
2017-04-04T06:25:07.626Z,1017.18
2017-04-04T06:26:08.848Z,1017.18
2017-04-04T06:27:10.165Z,1017.2
2017-04-04T06:28:11.574Z,1017.23
2017-04-04T06:29:12.844Z,1017.24
2017-04-04T06:30:14.064Z,1017.26
2017-04-04T06:31:15.316Z,1017.24
2017-04-04T06:32:16.564Z,1017.23
2017-04-04T06:33:17.794Z,1017.22
2017-04-04T06:34:19.116Z,1017.2
2017-04-04T06:35:20.408Z,1017.21
2017-04-04T06:36:21.647Z,1017.2
2017-04-04T06:37:22.880Z,1017.21
2017-04-04T06:38:24.146Z,1017.21
2017-04-04T06:39:25.376Z,1017.22
2017-04-04T06:40:26.632Z,1017.2
2017-04-04T06:41:27.916Z,1017.23
2017-04-04T06:42:29.187Z,1017.27
2017-04-04T06:43:30.417Z,1017.26
2017-04-04T06:44:31.655Z,1017.26
2017-04-04T06:45:33.061Z,1017.25
2017-04-04T06:46:34.249Z,1017.28
2017-04-04T06:47:35.492Z,1017.24
2017-04-04T06:48:36.737Z,1017.27
2017-04-04T06:49:37.984Z,1017.27
2017-04-04T06:50:39.256Z,1017.24
2017-04-04T06:51:40.498Z,1017.27
2017-04-04T06:52:41.750Z,1017.23
2017-04-04T06:53:43.014Z,1017.28
2017-04-04T06:54:44.334Z,1017.28
2017-04-04T06:55:45.542Z,1017.29
2017-04-04T06:56:46.786Z,1017.31
2017-04-04T06:57:48.033Z,1017.31
2017-04-04T06:58:49.449Z,1017.37
2017-04-04T06:59:50.832Z,1017.42
2017-04-04T07:00:52.087Z,1017.38
2017-04-04T07:01:53.337Z,1017.45
2017-04-04T07:02:54.650Z,1017.48
2017-04-04T07:03:55.885Z,1017.49
2017-04-04T07:04:57.172Z,1017.5
2017-04-04T07:05:58.479Z,1017.51
2017-04-04T07:06:59.726Z,1017.49
2017-04-04T07:08:01.009Z,1017.44
2017-04-04T07:09:02.233Z,1017.45
2017-04-04T07:10:03.523Z,1017.49
2017-04-04T07:11:04.784Z,1017.49
2017-04-04T07:12:06.026Z,1017.48
2017-04-04T07:13:07.280Z,1017.5
2017-04-04T07:14:08.528Z,1017.53
2017-04-04T07:15:09.756Z,1017.51
2017-04-04T07:16:11.015Z,1017.56
2017-04-04T07:17:12.244Z,1017.58
2017-04-04T07:18:13.645Z,1017.55
2017-04-04T07:19:14.894Z,1017.54
2017-04-04T07:20:16.158Z,1017.54
2017-04-04T07:21:17.390Z,1017.57
2017-04-04T07:22:18.642Z,1017.59
2017-04-04T07:23:19.906Z,1017.6
2017-04-04T07:24:21.153Z,1017.64
2017-04-04T07:25:22.400Z,1017.65
2017-04-04T07:26:23.658Z,1017.71
2017-04-04T07:27:24.923Z,1017.81
2017-04-04T07:28:26.157Z,1017.85
2017-04-04T07:29:27.457Z,1017.83
2017-04-04T07:30:28.723Z,1017.82
2017-04-04T07:31:29.987Z,1017.78
2017-04-04T07:32:31.225Z,1017.8
2017-04-04T07:33:32.473Z,1017.82
2017-04-04T07:34:33.781Z,1017.82
2017-04-04T07:35:35.030Z,1017.84
2017-04-04T07:36:36.281Z,1017.84
2017-04-04T07:37:37.527Z,1017.86
2017-04-04T07:38:38.776Z,1017.85
2017-04-04T07:39:40.028Z,1017.9
2017-04-04T07:40:41.275Z,1017.89
2017-04-04T07:41:42.524Z,1017.89
2017-04-04T07:42:43.774Z,1017.89
2017-04-04T07:43:45.091Z,1017.93
2017-04-04T07:44:46.375Z,1017.94
2017-04-04T07:45:47.667Z,1017.9
2017-04-04T07:46:48.912Z,1017.92
2017-04-04T07:47:50.160Z,1017.91
2017-04-04T07:48:51.409Z,1017.94
2017-04-04T07:49:52.677Z,1017.92
2017-04-04T07:50:53.906Z,1017.89
2017-04-04T07:51:55.157Z,1017.95
2017-04-04T07:52:56.441Z,1017.9
2017-04-04T07:53:57.674Z,1017.89
2017-04-04T07:54:58.974Z,1017.95
2017-04-04T07:56:00.184Z,1017.95
2017-04-04T07:57:01.461Z,1017.95
2017-04-04T07:58:02.713Z,1017.97
2017-04-04T07:59:03.983Z,1017.94
2017-04-04T08:00:05.266Z,1017.97
2017-04-04T08:01:06.501Z,1017.96
2017-04-04T08:02:07.739Z,1017.94
2017-04-04T08:03:08.988Z,1017.97
2017-04-04T08:04:10.230Z,1017.95
2017-04-04T08:05:11.488Z,1017.98
2017-04-04T08:06:12.735Z,1017.96
2017-04-04T08:07:13.985Z,1017.99
2017-04-04T08:08:15.332Z,1017.95
2017-04-04T08:09:16.801Z,1017.94
2017-04-04T08:10:18.060Z,1017.93
2017-04-04T08:11:19.308Z,1017.96
2017-04-04T08:12:20.560Z,1017.96
2017-04-04T08:13:21.887Z,1017.99
2017-04-04T08:14:23.146Z,1017.99
2017-04-04T08:15:24.419Z,1017.97
2017-04-04T08:16:25.666Z,1017.96
2017-04-04T08:17:26.954Z,1017.98
2017-04-04T08:18:28.198Z,1017.97
2017-04-04T08:19:29.611Z,1017.97
2017-04-04T08:20:30.858Z,1018.02
2017-04-04T08:21:32.126Z,1017.97
2017-04-04T08:22:33.353Z,1017.96
2017-04-04T08:23:34.611Z,1017.93
2017-04-04T08:24:35.959Z,1017.89
2017-04-04T08:25:37.237Z,1017.87
2017-04-04T08:26:38.701Z,1017.9
2017-04-04T08:27:39.950Z,1017.93
2017-04-04T08:28:41.205Z,1017.9
2017-04-04T08:29:42.448Z,1017.94
2017-04-04T08:30:43.745Z,1017.92
2017-04-04T08:31:45.140Z,1017.9
2017-04-04T08:32:46.412Z,1017.93
2017-04-04T08:33:47.667Z,1017.93
2017-04-04T08:34:48.892Z,1017.92
2017-04-04T08:35:50.158Z,1017.96
2017-04-04T08:36:51.489Z,1017.99
2017-04-04T08:37:52.746Z,1018.03
2017-04-04T08:38:54.037Z,1018.08
2017-04-04T08:39:55.286Z,1018.06
2017-04-04T08:40:56.532Z,1017.99
2017-04-04T08:41:57.814Z,1017.99
2017-04-04T08:42:59.081Z,1018.03
2017-04-04T08:44:00.438Z,1018.01
2017-04-04T08:45:01.687Z,1017.97
2017-04-04T08:46:02.942Z,1018
2017-04-04T08:47:04.195Z,1018.04
2017-04-04T08:48:05.559Z,1018.03
2017-04-04T08:49:06.796Z,1018
2017-04-04T08:50:08.050Z,1018.02
2017-04-04T08:51:09.294Z,1018.05
2017-04-04T08:52:10.577Z,1018.06
2017-04-04T08:53:11.864Z,1018.11
2017-04-04T08:54:13.114Z,1018.18
2017-04-04T08:55:14.363Z,1018.18
2017-04-04T08:56:15.628Z,1018.21
2017-04-04T08:57:16.911Z,1018.27
2017-04-04T08:58:18.162Z,1018.29
2017-04-04T08:59:19.411Z,1018.32
2017-04-04T09:00:20.660Z,1018.29
2017-04-04T09:01:22.041Z,1018.3
2017-04-04T09:02:23.315Z,1018.35
2017-04-04T09:03:24.609Z,1018.36
2017-04-04T09:04:25.856Z,1018.4
2017-04-04T09:05:27.199Z,1018.45
2017-04-04T09:06:28.409Z,1018.42
2017-04-04T09:07:29.804Z,1018.4
2017-04-04T09:08:31.063Z,1018.41
2017-04-04T09:09:32.329Z,1018.36
2017-04-04T09:10:33.590Z,1018.36
2017-04-04T09:11:34.834Z,1018.37
2017-04-04T09:12:36.105Z,1018.35
2017-04-04T09:13:37.392Z,1018.35
2017-04-04T09:14:38.638Z,1018.4
2017-04-04T09:15:39.886Z,1018.41
2017-04-04T09:16:41.142Z,1018.34
2017-04-04T09:17:42.396Z,1018.26
2017-04-04T09:18:43.641Z,1018.29
2017-04-04T09:19:44.918Z,1018.3
2017-04-04T09:20:46.192Z,1018.31
2017-04-04T09:21:47.428Z,1018.27
2017-04-04T09:22:48.694Z,1018.27
2017-04-04T09:23:49.935Z,1018.28
2017-04-04T09:24:51.256Z,1018.35
2017-04-04T09:25:52.484Z,1018.34
2017-04-04T09:26:53.744Z,1018.38
2017-04-04T09:27:55.044Z,1018.37
2017-04-04T09:28:56.294Z,1018.44
2017-04-04T09:29:57.563Z,1018.42
2017-04-04T09:30:58.830Z,1018.41
2017-04-04T09:32:00.051Z,1018.44
2017-04-04T09:33:01.510Z,1018.42
2017-04-04T09:34:02.761Z,1018.44
2017-04-04T09:35:04.010Z,1018.49
2017-04-04T09:36:05.296Z,1018.53
2017-04-04T09:37:06.570Z,1018.53
2017-04-04T09:38:07.843Z,1018.47
2017-04-04T09:39:09.149Z,1018.49
2017-04-04T09:40:10.397Z,1018.5
2017-04-04T09:41:11.690Z,1018.52
2017-04-04T09:42:12.920Z,1018.47
2017-04-04T09:43:14.190Z,1018.39
2017-04-04T09:44:15.461Z,1018.4
2017-04-04T09:45:16.843Z,1018.36
2017-04-04T09:46:18.086Z,1018.31
2017-04-04T09:47:19.342Z,1018.28
2017-04-04T09:48:20.599Z,1018.27
2017-04-04T09:49:21.855Z,1018.26
2017-04-04T09:50:23.207Z,1018.19
2017-04-04T09:51:24.482Z,1018.17
2017-04-04T09:52:25.734Z,1018.17
2017-04-04T09:53:27.014Z,1018.11
2017-04-04T09:54:28.261Z,1018.12
2017-04-04T09:55:29.565Z,1018.15
2017-04-04T09:56:30.852Z,1018.11
2017-04-04T09:57:32.113Z,1018.05
2017-04-04T09:58:33.361Z,1018.02
2017-04-04T09:59:34.619Z,1018.06
2017-04-04T10:00:35.896Z,1018
2017-04-04T10:01:37.174Z,1017.97
2017-04-04T10:02:38.442Z,1017.95
2017-04-04T10:03:39.711Z,1017.91
2017-04-04T10:04:41.073Z,1017.94
2017-04-04T10:05:42.302Z,1017.93
2017-04-04T10:06:43.626Z,1017.89
2017-04-04T10:07:44.863Z,1017.92
2017-04-04T10:08:46.118Z,1017.87
2017-04-04T10:09:47.378Z,1017.89
2017-04-04T10:10:48.628Z,1017.88
2017-04-04T10:11:49.887Z,1017.88
2017-04-04T10:12:51.257Z,1017.88
2017-04-04T10:13:52.516Z,1017.91
2017-04-04T10:14:53.802Z,1017.88
2017-04-04T10:15:55.040Z,1017.95
2017-04-04T10:16:56.292Z,1017.93
2017-04-04T10:17:57.541Z,1017.91
2017-04-04T10:18:58.825Z,1017.94
2017-04-04T10:20:00.059Z,1017.91
2017-04-04T10:21:01.382Z,1017.97
2017-04-04T10:22:02.676Z,1017.9
2017-04-04T10:23:03.936Z,1017.73
2017-04-04T10:24:05.239Z,1017.75
2017-04-04T10:25:06.505Z,1017.72
2017-04-04T10:26:07.768Z,1017.66
2017-04-04T10:27:09.013Z,1017.64
2017-04-04T10:28:10.262Z,1017.62
2017-04-04T10:29:11.511Z,1017.58
2017-04-04T10:30:12.774Z,1017.59
2017-04-04T10:31:14.106Z,1017.55
2017-04-04T10:32:15.382Z,1017.5
2017-04-04T10:33:16.721Z,1017.48
2017-04-04T10:34:17.993Z,1017.51
2017-04-04T10:35:19.269Z,1017.59
2017-04-04T10:36:20.488Z,1017.52
2017-04-04T10:37:21.756Z,1017.53
2017-04-04T10:38:23.080Z,1017.51
2017-04-04T10:39:24.427Z,1017.54
2017-04-04T10:40:25.672Z,1017.52
2017-04-04T10:41:26.922Z,1017.51
2017-04-04T10:42:28.176Z,1017.5
2017-04-04T10:43:29.577Z,1017.43
2017-04-04T10:44:30.920Z,1017.43
2017-04-04T10:45:32.167Z,1017.39
2017-04-04T10:46:33.417Z,1017.4
2017-04-04T10:47:34.663Z,1017.38
2017-04-04T10:48:35.923Z,1017.36
2017-04-04T10:49:37.336Z,1017.32
2017-04-04T10:50:38.612Z,1017.32
2017-04-04T10:51:40.050Z,1017.3
2017-04-04T10:52:41.287Z,1017.34
2017-04-04T10:53:42.553Z,1017.37
2017-04-04T10:54:43.808Z,1017.34
2017-04-04T10:55:45.101Z,1017.39
2017-04-04T10:56:46.359Z,1017.42
2017-04-04T10:57:47.608Z,1017.44
2017-04-04T10:58:48.883Z,1017.34
2017-04-04T10:59:50.122Z,1017.36
2017-04-04T11:00:51.468Z,1017.38
2017-04-04T11:01:52.702Z,1017.34
2017-04-04T11:02:54.001Z,1017.39
2017-04-04T11:03:55.244Z,1017.32
2017-04-04T11:04:56.497Z,1017.32
2017-04-04T11:05:57.753Z,1017.24
2017-04-04T11:06:59.054Z,1017.25
2017-04-04T11:08:00.262Z,1017.3
2017-04-04T11:09:01.504Z,1017.27
2017-04-04T11:10:02.756Z,1017.26
2017-04-04T11:11:04.003Z,1017.27
2017-04-04T11:12:05.254Z,1017.29
2017-04-04T11:13:06.503Z,1017.29
2017-04-04T11:14:07.783Z,1017.28
2017-04-04T11:15:09.010Z,1017.3
2017-04-04T11:16:10.251Z,1017.22
2017-04-04T11:17:11.489Z,1017.24
2017-04-04T11:18:12.771Z,1017.2
2017-04-04T11:19:14.038Z,1017.12
2017-04-04T11:20:15.290Z,1017.17
2017-04-04T11:21:16.640Z,1017.15
2017-04-04T11:22:17.816Z,1017.11
2017-04-04T11:23:19.055Z,1017.14
2017-04-04T11:24:20.302Z,1017.11
2017-04-04T11:25:21.553Z,1017.11
2017-04-04T11:26:22.843Z,1017.06
2017-04-04T11:27:24.140Z,1017.07
2017-04-04T11:28:25.486Z,1017.04
2017-04-04T11:29:26.712Z,1017.01
2017-04-04T11:30:27.949Z,1017.02
2017-04-04T11:31:29.310Z,1017.04
2017-04-04T11:32:30.585Z,1017.05
2017-04-04T11:33:31.831Z,1017.03
2017-04-04T11:34:33.052Z,1017.08
2017-04-04T11:35:34.302Z,1017.05
2017-04-04T11:36:35.556Z,1017.06
2017-04-04T11:37:36.804Z,1017.02
2017-04-04T11:38:38.059Z,1017.01
2017-04-04T11:39:39.438Z,1017.02
2017-04-04T11:40:40.777Z,1017.01
2017-04-04T11:41:42.018Z,1016.97
2017-04-04T11:42:43.255Z,1016.95
2017-04-04T11:43:44.502Z,1016.96
2017-04-04T11:44:45.744Z,1017
2017-04-04T11:45:47.062Z,1016.99
2017-04-04T11:46:48.302Z,1016.96
2017-04-04T11:47:49.550Z,1016.95
2017-04-04T11:48:50.796Z,1016.94
2017-04-04T11:49:52.099Z,1016.93
2017-04-04T11:50:53.330Z,1016.96
2017-04-04T11:51:54.696Z,1016.93
2017-04-04T11:52:55.868Z,1016.93
2017-04-04T11:53:57.155Z,1016.92
2017-04-04T11:54:58.409Z,1016.92
2017-04-04T11:55:59.695Z,1016.95
2017-04-04T11:57:01.009Z,1016.9
2017-04-04T11:58:02.194Z,1016.87
2017-04-04T11:59:03.454Z,1016.86
2017-04-04T12:00:04.699Z,1016.85
2017-04-04T12:01:05.940Z,1016.85
2017-04-04T12:02:07.222Z,1016.85
2017-04-04T12:03:08.569Z,1016.88
2017-04-04T12:04:09.843Z,1016.86
2017-04-04T12:05:11.067Z,1016.84
2017-04-04T12:06:12.306Z,1016.84
2017-04-04T12:07:13.546Z,1016.85
2017-04-04T12:08:14.790Z,1016.81
2017-04-04T12:09:16.043Z,1016.79
2017-04-04T12:10:17.438Z,1016.77
2017-04-04T12:11:18.681Z,1016.76
2017-04-04T12:12:19.926Z,1016.77
2017-04-04T12:13:21.157Z,1016.69
2017-04-04T12:14:22.417Z,1016.74
2017-04-04T12:15:23.626Z,1016.71
2017-04-04T12:16:24.879Z,1016.74
2017-04-04T12:17:26.131Z,1016.75
2017-04-04T12:18:27.434Z,1016.74
2017-04-04T12:19:28.675Z,1016.75
2017-04-04T12:20:29.924Z,1016.75
2017-04-04T12:21:31.207Z,1016.72
2017-04-04T12:22:32.446Z,1016.71
2017-04-04T12:23:33.759Z,1016.72